Portada
METAR-TAF:

METAR-TAF

Aeropuertos :

Panamá Pacífico

Panama Pacifico, Panamá

latitud: 08-55N, longitud: 079-36W, altitud: 16 m

Observación

El informe se hizo hace 55 minutos, a las 17:00 UTC
Viento calma
Temperatura 29°C
Humedad 84%
Presión 1011 hPa
Visibilidad 10 km o más
Escasas nubes a una altura de 1700 ft

METAR: MPPA 041700Z 00000KT 9999 FEW017 29/26 Q1011

Hora: 12:55 (17:55 UTC)

Pronóstico

El informe se hizo hace 55 minutos, a las 17:00 UTC
Pronóstico válido del 04 a las 18 UTC al 05 a las 24 UTC
Viento 7 kt del norte-noroeste
Visibilidad 10 km o más
Nubes dispersas a una altura de 1800 ft
Temporalmente
del 04 a las 18 UTC al 04 a las 22 UTC
Viento 10 kt del norte-noreste

TAF: MPPA 041700Z 0418/0524 34007KT 9999 SCT018 TEMPO 0418/0422 03010KT

Observaciones y pronósticos meteorológicos de más de 4000 aeropuertos (mensajes METAR y TAF).

Los puntos amarillos y rojos representan las estaciones disponibles.

Ponga el ratón en el punto deseado para ver el nombre de la estación.

Haga clic para ver las observaciones y los pronósticos meteorológicos.

Para cambiar el mapa : haga clic en los botones verdes con una cruz de color negro para hacer un zoom, en el botón verde con un guión para alejar o en las flechas verdes para mapas adyacentes.


METAR-TAF: